Time;durP1;ratioP1;P1;durP2;ratioP2;P2;SDS_P1;SDS_P2;PMS_P1;PMS_P2;Temp;Humidity;BMP_temperature;BMP_pressure;BME280_temperature;BME280_humidity;BME280_pressure;Samples;Min_cycle;Max_cycle;Signal;HPM_P1;HPM_P2
2021/04/23 00:00:37;;;;;;;8.82;4.78;;;5.70;69.40;;;;;;5096208;28;20024;-35
2021/04/23 00:03:12;;;;;;;10.80;4.25;;;5.60;69.80;;;;;;5096468;28;20036;-36
2021/04/23 00:05:39;;;;;;;11.77;4.68;;;5.50;70.40;;;;;;5095058;28;20107;-35
2021/04/23 00:08:04;;;;;;;10.50;4.57;;;5.50;70.00;;;;;;5096160;28;20028;-35
2021/04/23 00:10:30;;;;;;;14.13;6.35;;;5.50;70.00;;;;;;5094791;28;20028;-36
2021/04/23 00:12:56;;;;;;;13.60;4.70;;;5.50;69.90;;;;;;5096015;28;20368;-35
2021/04/23 00:15:22;;;;;;;14.60;5.35;;;5.50;69.70;;;;;;5096030;28;20073;-35
2021/04/23 00:17:49;;;;;;;12.98;4.72;;;5.50;69.90;;;;;;5096144;28;20020;-36
2021/04/23 00:20:24;;;;;;;14.45;5.85;;;5.40;70.70;;;;;;5095780;28;20020;-35
2021/04/23 00:22:50;;;;;;;9.45;4.00;;;5.30;71.20;;;;;;5094722;28;20095;-35
2021/04/23 00:25:25;;;;;;;21.63;5.18;;;5.30;71.00;;;;;;5096585;28;20024;-36
2021/04/23 00:27:55;;;;;;;12.50;4.93;;;5.40;70.90;;;;;;5096074;28;20111;-36
2021/04/23 00:30:25;;;;;;;10.57;4.43;;;5.30;71.40;;;;;;5095775;28;20039;-35
2021/04/23 00:32:55;;;;;;;11.32;5.10;;;5.30;71.40;;;;;;5095901;28;20047;-36
2021/04/23 00:35:27;;;;;;;11.05;5.32;;;5.20;71.40;;;;;;5095506;28;20024;-35
2021/04/23 00:37:55;;;;;;;15.55;5.13;;;5.20;71.30;;;;;;5095960;28;20032;-35
2021/04/23 00:40:26;;;;;;;21.08;5.20;;;5.30;71.30;;;;;;5095985;28;20025;-35
2021/04/23 00:42:52;;;;;;;12.45;5.30;;;5.20;71.10;;;;;;5096189;28;20456;-35
2021/04/23 00:45:21;;;;;;;13.68;5.38;;;5.20;71.40;;;;;;5097738;28;20035;-36
2021/04/23 00:47:50;;;;;;;14.52;5.63;;;5.20;71.80;;;;;;5095858;28;20024;-36
2021/04/23 00:50:42;;;;;;;17.90;5.32;;;5.10;71.80;;;;;;5094249;28;20051;-36
2021/04/23 00:53:10;;;;;;;12.90;5.22;;;5.00;72.30;;;;;;5095194;28;20062;-36
2021/04/23 00:55:37;;;;;;;11.63;4.90;;;5.00;72.40;;;;;;5095717;28;20035;-36
2021/04/23 00:58:09;;;;;;;20.60;4.90;;;4.80;72.60;;;;;;5096127;28;20166;-36
2021/04/23 01:00:35;;;;;;;15.68;4.60;;;4.80;72.90;;;;;;5093979;28;20024;-35
2021/04/23 01:03:00;;;;;;;10.18;4.80;;;4.80;73.10;;;;;;5095950;28;20058;-36
2021/04/23 01:05:34;;;;;;;16.13;5.53;;;4.80;73.00;;;;;;5093766;28;20031;-36
2021/04/23 01:08:01;;;;;;;14.15;4.90;;;4.80;73.00;;;;;;5095131;28;20487;-36
2021/04/23 01:10:28;;;;;;;14.80;6.50;;;4.80;73.10;;;;;;5094846;28;20107;-36
2021/04/23 01:12:54;;;;;;;15.43;6.60;;;4.80;73.10;;;;;;5095142;28;20060;-36
2021/04/23 01:15:21;;;;;;;11.75;5.43;;;4.80;73.10;;;;;;5094939;28;20024;-36
2021/04/23 01:17:47;;;;;;;16.42;6.28;;;4.80;72.90;;;;;;5094621;28;20027;-36
2021/04/23 01:20:13;;;;;;;12.50;5.68;;;4.80;72.80;;;;;;5094630;28;20073;-40
2021/04/23 01:22:39;;;;;;;12.90;4.90;;;4.80;73.10;;;;;;5094250;28;20051;-36
2021/04/23 01:25:06;;;;;;;13.15;5.38;;;4.70;73.10;;;;;;5094582;28;20048;-36
2021/04/23 01:27:32;;;;;;;13.18;5.20;;;4.50;74.10;;;;;;5094351;28;20036;-36
2021/04/23 01:29:58;;;;;;;15.65;5.97;;;4.50;73.90;;;;;;5093106;28;20027;-36
2021/04/23 01:32:24;;;;;;;14.75;6.25;;;4.40;74.40;;;;;;5094559;28;20032;-36
2021/04/23 01:34:50;;;;;;;13.88;5.60;;;4.50;74.10;;;;;;5094711;28;20044;-35
2021/04/23 01:37:15;;;;;;;10.35;5.28;;;4.50;74.10;;;;;;5094182;28;20029;-35
2021/04/23 01:39:44;;;;;;;15.98;6.75;;;4.40;73.90;;;;;;5094516;28;20460;-36
2021/04/23 01:42:12;;;;;;;16.10;5.90;;;4.30;74.30;;;;;;5093688;28;20016;-36
2021/04/23 01:44:39;;;;;;;13.70;4.53;;;4.30;74.60;;;;;;5092963;28;20384;-36
2021/04/23 01:47:06;;;;;;;9.80;5.07;;;4.30;74.40;;;;;;5092867;28;20082;-36
2021/04/23 01:49:33;;;;;;;24.42;7.10;;;4.20;75.10;;;;;;5094033;28;20114;-36
2021/04/23 01:52:09;;;;;;;15.43;5.80;;;4.30;75.00;;;;;;5094167;28;20023;-36
2021/04/23 01:54:35;;;;;;;16.15;6.63;;;4.30;74.70;;;;;;5094310;28;20509;-36
2021/04/23 01:57:02;;;;;;;14.93;6.05;;;4.30;75.00;;;;;;5094160;28;20075;-36
2021/04/23 01:59:29;;;;;;;17.65;6.32;;;4.20;75.30;;;;;;5094262;28;20028;-36
2021/04/23 02:01:54;;;;;;;15.45;5.82;;;4.20;75.30;;;;;;5092613;28;20115;-36
2021/04/23 02:04:22;;;;;;;13.05;6.50;;;4.20;75.60;;;;;;5094086;28;20107;-36
2021/04/23 02:06:49;;;;;;;21.50;6.82;;;4.20;75.20;;;;;;5093801;28;20028;-36
2021/04/23 02:09:15;;;;;;;16.05;5.95;;;4.20;75.50;;;;;;5093724;28;20020;-36
2021/04/23 02:11:43;;;;;;;20.33;8.15;;;4.30;75.10;;;;;;5093814;28;20028;-36
2021/04/23 02:14:08;;;;;;;11.15;5.88;;;4.40;74.60;;;;;;5092398;28;20483;-36
2021/04/23 02:16:34;;;;;;;12.07;5.82;;;4.30;74.70;;;;;;5093791;28;20070;-36
2021/04/23 02:19:01;;;;;;;10.80;7.03;;;4.30;75.50;;;;;;5093596;28;20028;-36
2021/04/23 02:21:27;;;;;;;17.45;6.72;;;4.20;75.30;;;;;;5093597;28;20479;-35
2021/04/23 02:23:52;;;;;;;15.70;6.38;;;4.20;75.70;;;;;;5092196;28;20482;-35
2021/04/23 02:26:20;;;;;;;17.83;7.15;;;4.20;75.70;;;;;;5092021;28;20024;-36
2021/04/23 02:28:50;;;;;;;18.50;6.68;;;4.10;75.90;;;;;;5093473;28;20028;-36
2021/04/23 02:31:19;;;;;;;11.38;6.30;;;4.20;76.00;;;;;;5093679;28;20035;-36
2021/04/23 02:33:47;;;;;;;17.35;6.28;;;4.20;75.70;;;;;;5093436;28;20092;-35
2021/04/23 02:36:14;;;;;;;15.45;6.80;;;4.20;75.60;;;;;;5093219;28;20031;-35
2021/04/23 02:38:41;;;;;;;16.17;7.15;;;4.20;75.50;;;;;;5093124;28;20028;-35
2021/04/23 02:41:07;;;;;;;15.40;5.72;;;4.20;75.40;;;;;;5093278;28;20039;-35
2021/04/23 02:43:37;;;;;;;17.83;6.95;;;4.20;75.30;;;;;;5093583;28;20028;-35
2021/04/23 02:46:03;;;;;;;19.88;6.45;;;4.30;75.30;;;;;;5093918;28;20024;-35
2021/04/23 02:48:33;;;;;;;18.40;7.00;;;4.20;75.70;;;;;;5093303;28;20048;-35
2021/04/23 02:51:10;;;;;;;13.85;6.18;;;4.20;75.50;;;;;;5093298;28;20038;-36
2021/04/23 02:53:36;;;;;;;14.82;5.82;;;4.20;75.90;;;;;;5093473;28;20029;-35
2021/04/23 02:56:03;;;;;;;14.70;7.47;;;4.20;75.60;;;;;;5096384;28;20476;-34
2021/04/23 02:58:29;;;;;;;15.63;6.63;;;4.00;76.00;;;;;;5097276;28;20024;-35
2021/04/23 03:00:59;;;;;;;13.60;6.10;;;4.10;76.00;;;;;;5097554;28;20150;-35
2021/04/23 03:03:25;;;;;;;11.63;6.45;;;3.80;76.70;;;;;;5097525;28;20472;-35
2021/04/23 03:05:51;;;;;;;14.05;6.40;;;3.70;77.50;;;;;;5097215;28;20466;-36
2021/04/23 03:08:18;;;;;;;22.27;7.63;;;3.80;77.70;;;;;;5097353;28;20035;-35
2021/04/23 03:10:52;;;;;;;12.27;6.13;;;3.60;78.00;;;;;;5097133;28;20016;-37
2021/04/23 03:13:22;;;;;;;15.75;6.95;;;3.60;77.90;;;;;;5097679;28;20024;-36
2021/04/23 03:15:49;;;;;;;22.35;7.10;;;3.40;78.40;;;;;;5095847;28;20512;-36
2021/04/23 03:18:17;;;;;;;24.52;7.55;;;3.30;78.90;;;;;;5096927;28;20031;-36
2021/04/23 03:20:44;;;;;;;15.45;7.30;;;3.30;79.10;;;;;;5097437;28;20024;-35
2021/04/23 03:23:10;;;;;;;14.50;7.05;;;3.30;79.00;;;;;;5096925;28;20039;-35
2021/04/23 03:25:36;;;;;;;20.35;7.13;;;3.10;79.80;;;;;;5097110;28;20488;-35
2021/04/23 03:28:04;;;;;;;15.63;7.10;;;3.10;80.10;;;;;;5097031;28;20024;-35
2021/04/23 03:30:33;;;;;;;19.60;7.53;;;3.10;80.10;;;;;;5096665;28;20103;-34
2021/04/23 03:33:00;;;;;;;17.27;7.57;;;3.00;80.30;;;;;;5095280;28;20035;-35
2021/04/23 03:35:27;;;;;;;35.13;8.98;;;2.90;80.90;;;;;;5096611;28;20024;-35
2021/04/23 03:37:53;;;;;;;17.52;8.15;;;2.80;81.40;;;;;;5096812;28;20060;-36
2021/04/23 03:40:22;;;;;;;19.65;8.57;;;2.90;81.30;;;;;;5096525;28;20020;-35
2021/04/23 03:42:48;;;;;;;16.67;8.30;;;2.80;81.30;;;;;;5096453;28;20055;-34
2021/04/23 03:45:16;;;;;;;20.02;7.90;;;2.90;81.10;;;;;;5096426;28;20033;-35
2021/04/23 03:47:41;;;;;;;19.27;7.18;;;3.00;80.70;;;;;;5096624;28;20028;-35
2021/04/23 03:50:11;;;;;;;20.33;7.88;;;2.70;81.40;;;;;;5094985;28;20055;-35
2021/04/23 03:52:37;;;;;;;16.08;7.60;;;2.80;81.30;;;;;;5095004;28;20111;-35
2021/04/23 03:55:07;;;;;;;16.42;8.98;;;2.80;80.90;;;;;;5095043;28;20106;-36
2021/04/23 03:57:34;;;;;;;15.73;7.93;;;3.00;80.30;;;;;;5094894;28;20035;-36
2021/04/23 04:00:03;;;;;;;14.68;7.20;;;2.90;80.60;;;;;;5095036;28;20031;-36
2021/04/23 04:02:29;;;;;;;17.80;9.20;;;2.90;80.60;;;;;;5095183;28;20022;-35
2021/04/23 04:04:55;;;;;;;15.23;7.07;;;2.90;81.10;;;;;;5094835;28;20099;-35
2021/04/23 04:07:20;;;;;;;14.98;8.80;;;2.90;80.70;;;;;;5094633;28;20035;-35
2021/04/23 04:09:46;;;;;;;11.52;6.38;;;2.80;81.00;;;;;;5094762;28;20050;-35
2021/04/23 04:12:12;;;;;;;13.65;6.45;;;2.80;80.70;;;;;;5094986;28;20064;-35
2021/04/23 04:14:37;;;;;;;13.05;6.88;;;2.80;80.60;;;;;;5094744;28;20048;-35
2021/04/23 04:17:03;;;;;;;17.98;7.75;;;2.90;80.10;;;;;;5094570;28;20500;-35
2021/04/23 04:19:29;;;;;;;18.00;6.63;;;2.90;79.60;;;;;;5094611;28;20020;-35
2021/04/23 04:21:54;;;;;;;15.82;7.72;;;2.90;79.70;;;;;;5094612;28;20020;-35
2021/04/23 04:24:20;;;;;;;13.15;7.65;;;2.90;79.90;;;;;;5094455;28;20078;-35
2021/04/23 04:26:46;;;;;;;18.95;7.18;;;2.90;80.30;;;;;;5095225;28;20353;-35
2021/04/23 04:29:12;;;;;;;20.52;7.18;;;2.90;80.20;;;;;;5093207;28;20051;-34
2021/04/23 04:31:37;;;;;;;13.07;7.15;;;2.70;80.20;;;;;;5094722;28;20066;-35
2021/04/23 04:34:03;;;;;;;22.27;8.27;;;2.50;81.10;;;;;;5094548;28;20491;-35
2021/04/23 04:36:29;;;;;;;11.88;7.18;;;2.60;81.10;;;;;;5092895;28;20081;-35
2021/04/23 04:38:54;;;;;;;22.13;7.13;;;2.40;81.30;;;;;;5094238;28;20040;-35
2021/04/23 04:41:20;;;;;;;19.10;7.88;;;2.50;81.70;;;;;;5094525;28;20027;-35
2021/04/23 04:43:46;;;;;;;22.20;8.32;;;2.70;81.00;;;;;;5094374;28;20487;-35
2021/04/23 04:46:12;;;;;;;21.58;6.68;;;2.80;79.90;;;;;;5094236;28;20024;-35
2021/04/23 04:48:38;;;;;;;19.65;9.18;;;2.80;79.30;;;;;;5070933;28;668236;-35
2021/04/23 04:51:07;;;;;;;22.23;8.05;;;2.60;80.00;;;;;;5095205;28;20452;-35
2021/04/23 04:53:33;;;;;;;20.15;8.10;;;2.50;80.90;;;;;;5095195;28;20024;-35
2021/04/23 04:55:59;;;;;;;16.42;8.05;;;2.50;80.80;;;;;;5095192;28;20441;-34
2021/04/23 04:58:28;;;;;;;15.30;6.90;;;2.70;80.50;;;;;;5094961;28;20380;-34
2021/04/23 05:00:54;;;;;;;17.33;7.65;;;2.60;80.40;;;;;;5094683;28;20024;-41
2021/04/23 05:03:20;;;;;;;19.45;8.00;;;2.70;80.70;;;;;;5094931;28;20532;-35
2021/04/23 05:05:46;;;;;;;45.13;10.80;;;2.80;80.40;;;;;;5094605;28;20103;-34
2021/04/23 05:08:12;;;;;;;14.82;7.53;;;2.70;80.60;;;;;;5094769;28;20029;-35
2021/04/23 05:10:38;;;;;;;24.33;8.60;;;2.60;81.10;;;;;;5094369;28;20066;-35
2021/04/23 05:13:04;;;;;;;15.95;8.10;;;2.70;81.30;;;;;;5094679;28;20036;-35
2021/04/23 05:15:30;;;;;;;16.40;8.10;;;2.70;81.40;;;;;;5094663;28;20024;-35
2021/04/23 05:17:56;;;;;;;19.25;8.70;;;2.80;81.60;;;;;;5093375;28;20115;-35
2021/04/23 05:20:23;;;;;;;16.77;7.18;;;2.90;81.00;;;;;;5094290;28;20059;-35
2021/04/23 05:22:49;;;;;;;21.13;9.05;;;2.80;81.20;;;;;;5094185;28;20028;-35
2021/04/23 05:25:21;;;;;;;21.13;7.50;;;3.10;81.00;;;;;;5093946;28;20024;-35
2021/04/23 05:27:47;;;;;;;29.40;9.27;;;3.10;80.70;;;;;;5094507;28;20099;-35
2021/04/23 05:30:17;;;;;;;21.20;8.70;;;3.30;80.50;;;;;;5098193;28;20410;-35
2021/04/23 05:32:42;;;;;;;23.75;9.27;;;3.40;80.30;;;;;;5095411;28;20448;-35
2021/04/23 05:35:09;;;;;;;20.13;9.05;;;3.50;80.10;;;;;;5094226;28;20073;-35
2021/04/23 05:37:35;;;;;;;22.23;8.73;;;3.60;80.20;;;;;;5094005;28;20072;-35
2021/04/23 05:40:07;;;;;;;18.50;7.88;;;3.70;79.50;;;;;;5093853;28;20499;-35
2021/04/23 05:42:33;;;;;;;19.50;8.52;;;3.80;79.10;;;;;;5094009;28;20459;-35
2021/04/23 05:44:59;;;;;;;24.80;9.45;;;3.90;79.10;;;;;;5093843;28;20023;-35
2021/04/23 05:47:25;;;;;;;23.80;9.70;;;4.10;79.00;;;;;;5094656;28;20356;-35
2021/04/23 05:49:51;;;;;;;24.13;9.68;;;4.20;78.30;;;;;;5093354;28;20043;-35
2021/04/23 05:52:17;;;;;;;18.98;9.32;;;4.30;78.40;;;;;;5092365;28;20181;-36
2021/04/23 05:54:42;;;;;;;18.17;8.15;;;4.50;78.10;;;;;;5094028;28;20463;-34
2021/04/23 05:57:08;;;;;;;19.73;8.95;;;4.60;77.70;;;;;;5095045;28;20035;-35
2021/04/23 05:59:34;;;;;;;36.38;9.80;;;4.80;77.30;;;;;;5095274;28;20028;-35
2021/04/23 06:02:00;;;;;;;40.80;10.30;;;5.10;77.10;;;;;;5094894;28;20028;-37
2021/04/23 06:04:27;;;;;;;16.25;8.02;;;5.50;75.30;;;;;;5097241;28;20417;-35
2021/04/23 06:06:52;;;;;;;16.80;6.88;;;5.50;74.60;;;;;;5095028;28;20051;-35
2021/04/23 06:09:18;;;;;;;15.13;7.10;;;5.60;74.50;;;;;;5093477;28;20469;-35
2021/04/23 06:11:44;;;;;;;23.13;6.30;;;5.70;74.10;;;;;;5093764;28;20032;-35
2021/04/23 06:14:10;;;;;;;14.00;6.50;;;5.80;73.10;;;;;;5093267;28;20046;-36
2021/04/23 06:16:36;;;;;;;15.95;6.30;;;5.90;72.90;;;;;;5092782;28;20076;-35
2021/04/23 06:19:03;;;;;;;17.05;5.93;;;6.10;71.00;;;;;;5093600;28;20095;-35
2021/04/23 06:21:29;;;;;;;12.02;6.03;;;6.20;70.70;;;;;;5091495;28;20016;-36
2021/04/23 06:23:55;;;;;;;24.67;7.60;;;6.30;70.70;;;;;;5093069;28;20149;-36
2021/04/23 06:26:20;;;;;;;16.48;7.63;;;6.30;70.50;;;;;;5093068;28;20110;-36
2021/04/23 06:28:46;;;;;;;10.80;5.28;;;6.20;71.20;;;;;;5093071;28;20047;-36
2021/04/23 06:31:13;;;;;;;20.40;7.07;;;6.30;70.60;;;;;;5092718;28;20016;-36
2021/04/23 06:33:41;;;;;;;25.10;8.32;;;6.30;70.20;;;;;;5091129;28;20413;-36
2021/04/23 06:36:08;;;;;;;15.55;6.40;;;6.40;69.30;;;;;;5093061;28;20024;-35
2021/04/23 06:38:35;;;;;;;18.23;7.05;;;6.40;68.90;;;;;;5093679;28;20028;-36
2021/04/23 06:41:01;;;;;;;12.93;5.43;;;6.60;68.90;;;;;;5092920;28;20035;-36
2021/04/23 06:43:27;;;;;;;17.08;5.57;;;6.60;67.70;;;;;;5092996;28;20026;-36
2021/04/23 06:45:53;;;;;;;15.32;5.20;;;6.60;67.80;;;;;;5092982;28;20024;-35
2021/04/23 06:48:20;;;;;;;20.50;6.05;;;6.80;66.80;;;;;;5092473;28;20048;-36
2021/04/23 06:50:46;;;;;;;17.75;5.85;;;6.80;67.20;;;;;;5092786;28;20024;-35
2021/04/23 06:53:12;;;;;;;25.27;8.57;;;6.80;67.80;;;;;;5091388;28;20103;-35
2021/04/23 06:55:39;;;;;;;11.20;6.15;;;7.20;66.40;;;;;;5092767;28;20119;-36
2021/04/23 06:58:05;;;;;;;23.92;7.28;;;7.30;65.90;;;;;;5093068;28;20080;-36
2021/04/23 07:00:33;;;;;;;18.40;5.95;;;7.50;65.70;;;;;;5092381;28;20115;-36
2021/04/23 07:03:00;;;;;;;15.93;5.88;;;7.70;65.00;;;;;;5092139;28;20173;-36
2021/04/23 07:05:28;;;;;;;16.55;6.47;;;7.90;64.40;;;;;;5092198;28;20043;-37
2021/04/23 07:07:54;;;;;;;12.20;5.80;;;8.00;63.90;;;;;;5092284;28;20032;-35
2021/04/23 07:10:25;;;;;;;17.70;5.97;;;8.40;60.30;;;;;;5092765;28;20515;-37
2021/04/23 07:12:51;;;;;;;12.88;4.72;;;8.60;59.50;;;;;;5092831;28;20110;-35
2021/04/23 07:15:20;;;;;;;10.52;3.47;;;8.30;61.10;;;;;;5092631;28;20169;-35
2021/04/23 07:17:47;;;;;;;10.95;3.72;;;8.50;58.20;;;;;;5092358;28;20105;-34
2021/04/23 07:20:13;;;;;;;14.45;4.07;;;8.30;59.50;;;;;;5092306;28;20020;-35
2021/04/23 07:22:40;;;;;;;13.55;4.50;;;8.10;60.50;;;;;;5092302;28;20059;-36
2021/04/23 07:25:07;;;;;;;10.55;4.38;;;8.20;59.80;;;;;;5090576;28;20094;-36
2021/04/23 07:27:36;;;;;;;17.90;4.55;;;8.30;59.20;;;;;;5090893;28;20042;-35
2021/04/23 07:30:11;;;;;;;15.05;5.32;;;8.10;59.70;;;;;;5092594;28;20502;-35
2021/04/23 07:32:37;;;;;;;13.60;4.82;;;8.10;60.10;;;;;;5092463;28;20523;-35
2021/04/23 07:35:03;;;;;;;15.77;5.30;;;8.20;60.10;;;;;;5092077;28;20024;-35
2021/04/23 07:37:29;;;;;;;15.82;6.55;;;8.50;58.80;;;;;;5092453;28;20467;-35
2021/04/23 07:39:55;;;;;;;12.00;4.28;;;8.60;58.10;;;;;;5092218;28;20108;-35
2021/04/23 07:42:20;;;;;;;10.18;4.30;;;8.50;58.40;;;;;;5094218;28;20024;-35
2021/04/23 07:44:46;;;;;;;14.05;3.90;;;8.80;56.20;;;;;;5096191;28;20028;-35
2021/04/23 07:47:12;;;;;;;7.07;3.80;;;8.90;55.30;;;;;;5095917;28;20024;-37
2021/04/23 07:49:38;;;;;;;12.52;4.43;;;8.50;56.90;;;;;;5096108;28;20126;-35
2021/04/23 07:52:04;;;;;;;7.40;3.63;;;8.50;56.60;;;;;;5096636;28;20028;-35
2021/04/23 07:54:31;;;;;;;11.40;4.10;;;8.40;56.30;;;;;;5096291;28;20112;-35
2021/04/23 07:56:56;;;;;;;14.73;5.32;;;8.40;56.80;;;;;;5095517;28;20031;-41
2021/04/23 07:59:22;;;;;;;13.60;4.22;;;8.30;57.50;;;;;;5095803;28;20127;-35
2021/04/23 08:01:51;;;;;;;17.58;5.07;;;8.60;56.90;;;;;;5094528;28;20043;-35
2021/04/23 08:04:17;;;;;;;10.98;3.40;;;9.30;54.80;;;;;;5095576;28;20021;-36
2021/04/23 08:06:42;;;;;;;10.63;4.13;;;10.30;51.10;;;;;;5094298;28;20027;-36
2021/04/23 08:09:08;;;;;;;15.55;4.55;;;10.70;50.00;;;;;;5095661;28;20046;-36
2021/04/23 08:11:34;;;;;;;9.25;4.18;;;11.40;48.90;;;;;;5095157;28;20032;-38
2021/04/23 08:14:00;;;;;;;8.98;3.28;;;11.10;47.70;;;;;;5095359;28;20379;-35
2021/04/23 08:16:25;;;;;;;11.75;3.83;;;10.30;49.40;;;;;;5095198;28;20472;-35
2021/04/23 08:18:53;;;;;;;12.65;3.60;;;10.90;49.00;;;;;;5095590;28;20423;-35
2021/04/23 08:21:20;;;;;;;11.65;4.43;;;12.10;46.30;;;;;;5095299;28;20024;-35
2021/04/23 08:23:47;;;;;;;8.93;3.88;;;11.70;47.10;;;;;;5095703;28;20361;-36
2021/04/23 08:26:14;;;;;;;11.82;3.70;;;12.30;46.00;;;;;;5095399;28;20406;-36
2021/04/23 08:28:40;;;;;;;6.65;3.28;;;13.40;42.50;;;;;;5095249;28;20380;-36
2021/04/23 08:31:06;;;;;;;9.23;4.15;;;12.90;42.60;;;;;;5095387;28;20475;-37
2021/04/23 08:33:32;;;;;;;8.82;3.55;;;12.70;43.80;;;;;;5095079;28;20069;-36
2021/04/23 08:35:58;;;;;;;7.57;3.33;;;11.60;45.30;;;;;;5095282;28;20472;-39
2021/04/23 08:38:25;;;;;;;8.38;4.82;;;12.80;44.00;;;;;;5094804;28;20537;-36
2021/04/23 08:40:52;;;;;;;14.40;4.85;;;11.40;46.00;;;;;;5094704;28;20429;-36
2021/04/23 08:43:18;;;;;;;13.20;3.90;;;10.80;47.60;;;;;;5095144;28;20024;-37
2021/04/23 08:45:43;;;;;;;10.13;3.97;;;10.30;48.60;;;;;;5095512;28;20077;-37
2021/04/23 08:48:10;;;;;;;12.07;4.32;;;9.80;50.50;;;;;;5094517;28;20052;-37
2021/04/23 08:50:36;;;;;;;15.15;4.70;;;9.80;50.50;;;;;;5094562;28;20107;-36
2021/04/23 08:53:03;;;;;;;10.02;4.05;;;10.10;49.40;;;;;;5093527;28;20379;-36
2021/04/23 08:55:29;;;;;;;8.93;4.45;;;10.80;47.30;;;;;;5094893;28;20096;-36
2021/04/23 08:57:55;;;;;;;10.38;3.80;;;11.60;44.60;;;;;;5095252;28;20024;-37
2021/04/23 09:00:21;;;;;;;8.00;3.78;;;12.50;42.80;;;;;;5094908;28;20028;-38
2021/04/23 09:02:47;;;;;;;5.45;2.92;;;12.80;42.20;;;;;;5092792;28;20069;-37
2021/04/23 09:05:14;;;;;;;3.97;2.50;;;12.20;43.10;;;;;;5094709;28;20472;-37
2021/04/23 09:07:40;;;;;;;14.15;4.70;;;13.80;39.90;;;;;;5094967;28;20032;-36
2021/04/23 09:10:14;;;;;;;6.78;3.50;;;14.10;39.10;;;;;;5094779;28;20468;-35
2021/04/23 09:12:41;;;;;;;12.98;3.85;;;14.50;38.30;;;;;;5094383;28;20032;-37
2021/04/23 09:15:26;;;;;;;9.52;4.45;;;13.90;40.00;;;;;;5094330;28;20032;-36
2021/04/23 09:18:10;;;;;;;14.65;4.68;;;12.80;42.40;;;;;;5094817;28;20421;-37
2021/04/23 09:20:46;;;;;;;8.38;3.97;;;13.20;41.80;;;;;;5093769;28;20171;-37
2021/04/23 09:23:22;;;;;;;5.80;3.17;;;13.30;41.30;;;;;;5093805;28;20050;-36
2021/04/23 09:25:53;;;;;;;9.10;3.78;;;12.80;42.30;;;;;;5092277;28;20407;-36
2021/04/23 09:28:36;;;;;;;7.32;3.72;;;12.00;44.10;;;;;;5094158;28;20032;-37
2021/04/23 09:31:24;;;;;;;14.75;4.63;;;13.40;41.30;;;;;;5094016;28;20468;-37
2021/04/23 09:33:55;;;;;;;10.93;3.53;;;12.70;42.20;;;;;;5093697;28;20464;-38
2021/04/23 09:36:31;;;;;;;7.03;3.03;;;12.80;41.90;;;;;;5093494;28;20032;-35
2021/04/23 09:39:12;;;;;;;6.78;3.28;;;13.40;40.60;;;;;;5094180;28;20420;-36
2021/04/23 09:41:40;;;;;;;7.57;3.40;;;13.30;40.30;;;;;;5093795;28;20063;-37
2021/04/23 09:44:32;;;;;;;11.88;3.70;;;12.80;41.50;;;;;;5093116;28;20038;-37
2021/04/23 09:47:21;;;;;;;11.18;3.95;;;12.40;42.80;;;;;;5092548;28;20063;-37
2021/04/23 09:49:51;;;;;;;7.55;3.30;;;12.40;42.30;;;;;;5093253;28;20127;-37
2021/04/23 09:52:17;;;;;;;8.65;3.42;;;14.00;38.60;;;;;;5093525;28;20438;-36
2021/04/23 09:54:48;;;;;;;12.48;4.00;;;14.60;37.50;;;;;;5093712;28;20024;-35
2021/04/23 09:57:17;;;;;;;11.25;3.55;;;15.30;36.30;;;;;;5093323;28;20034;-35
2021/04/23 09:59:51;;;;;;;7.95;3.33;;;15.80;35.20;;;;;;5093694;28;20059;-36
2021/04/23 10:02:18;;;;;;;7.65;3.42;;;15.30;35.40;;;;;;5093230;28;20046;-36
2021/04/23 10:04:44;;;;;;;10.35;4.60;;;14.10;38.00;;;;;;5093352;28;20042;-37
2021/04/23 10:07:16;;;;;;;10.63;3.67;;;14.60;37.00;;;;;;5093573;28;20027;-36
2021/04/23 10:09:46;;;;;;;8.88;3.38;;;13.30;39.40;;;;;;5093628;28;20035;-36
2021/04/23 10:12:12;;;;;;;11.38;3.65;;;13.50;39.70;;;;;;5092603;28;20028;-36
2021/04/23 10:14:38;;;;;;;12.27;3.58;;;15.50;36.30;;;;;;5091567;28;20059;-40
2021/04/23 10:17:06;;;;;;;8.43;3.75;;;16.30;33.90;;;;;;5092709;28;20059;-36
2021/04/23 10:19:32;;;;;;;9.90;3.78;;;15.70;34.60;;;;;;5093384;28;20487;-37
2021/04/23 10:22:00;;;;;;;14.20;4.13;;;15.50;35.20;;;;;;5093429;28;20020;-38
2021/04/23 10:24:26;;;;;;;9.70;3.95;;;15.60;35.10;;;;;;5093091;28;20157;-37
2021/04/23 10:26:52;;;;;;;10.25;3.95;;;16.20;33.80;;;;;;5092890;28;20028;-36
2021/04/23 10:29:19;;;;;;;10.70;3.40;;;16.20;34.20;;;;;;5093202;28;20082;-38
2021/04/23 10:31:44;;;;;;;16.35;4.72;;;16.00;34.40;;;;;;5092587;28;20119;-37
2021/04/23 10:34:10;;;;;;;11.35;4.38;;;14.80;36.30;;;;;;5093443;28;20032;-36
2021/04/23 10:36:38;;;;;;;7.85;3.58;;;15.10;36.40;;;;;;5092930;28;20059;-36
2021/04/23 10:39:06;;;;;;;6.50;2.72;;;15.70;34.60;;;;;;5093195;28;20549;-36
2021/04/23 10:41:37;;;;;;;6.72;3.28;;;14.90;35.90;;;;;;5092894;28;20016;-36
2021/04/23 10:44:03;;;;;;;;;;;14.70;35.90;;;;;;5093632;28;20028;-35
2021/04/23 10:46:30;;;;;;;6.90;2.78;;;15.10;35.10;;;;;;5092844;28;19904;-37
2021/04/23 10:49:07;;;;;;;9.25;2.80;;;14.80;35.80;;;;;;5092730;28;20119;-37
2021/04/23 10:51:33;;;;;;;11.25;4.13;;;15.30;35.10;;;;;;5091898;28;20094;-36
2021/04/23 10:54:14;;;;;;;8.45;3.55;;;14.30;35.60;;;;;;5091558;28;20073;-37
2021/04/23 10:56:55;;;;;;;7.55;3.50;;;15.50;34.50;;;;;;5092794;28;20031;-37
2021/04/23 10:59:21;;;;;;;8.20;3.05;;;17.00;32.20;;;;;;5092992;28;20024;-36
2021/04/23 11:01:46;;;;;;;10.10;3.83;;;17.80;30.80;;;;;;5092901;28;20401;-35
2021/04/23 11:04:18;;;;;;;9.25;3.70;;;15.60;34.70;;;;;;5092805;28;20016;-38
2021/04/23 11:07:00;;;;;;;11.25;3.45;;;16.20;34.30;;;;;;5092860;28;20024;-36
2021/04/23 11:09:26;;;;;;;9.18;3.38;;;16.10;34.30;;;;;;5092309;28;20032;-37
2021/04/23 11:12:07;;;;;;;10.23;3.63;;;15.80;34.80;;;;;;5092642;28;20028;-37
2021/04/23 11:14:36;;;;;;;9.13;3.75;;;15.60;35.00;;;;;;5092716;28;20081;-40
2021/04/23 11:17:17;;;;;;;14.00;3.47;;;15.00;36.00;;;;;;5095889;28;20020;-36
2021/04/23 11:19:43;;;;;;;;;;;14.50;36.70;;;;;;5097705;28;20036;-37
2021/04/23 11:22:29;;;;;;;8.07;4.53;;;15.80;34.80;;;;;;5096686;28;19939;-36
2021/04/23 11:25:18;;;;;;;6.75;3.13;;;16.80;32.80;;;;;;5096309;28;20031;-36
2021/04/23 11:28:02;;;;;;;14.43;3.85;;;16.90;32.30;;;;;;5096930;28;20433;-36
2021/04/23 11:30:29;;;;;;;9.38;3.83;;;16.10;33.70;;;;;;5096428;28;20021;-37
2021/04/23 11:32:56;;;;;;;10.68;3.75;;;16.50;33.30;;;;;;5097041;28;20525;-36
2021/04/23 11:35:26;;;;;;;11.60;4.00;;;15.80;35.00;;;;;;5096285;28;20035;-35
2021/04/23 11:37:56;;;;;;;8.13;3.35;;;17.80;31.50;;;;;;5096135;28;20024;-35
2021/04/23 11:40:30;;;;;;;6.60;3.17;;;17.30;31.60;;;;;;5096400;28;20020;-35
2021/04/23 11:43:02;;;;;;;9.63;3.40;;;16.40;33.40;;;;;;5096641;28;20051;-36
2021/04/23 11:45:31;;;;;;;13.60;3.38;;;17.40;31.40;;;;;;5096568;28;20028;-35
2021/04/23 11:47:59;;;;;;;11.02;3.67;;;17.20;31.30;;;;;;5095653;28;20020;-36
2021/04/23 11:50:36;;;;;;;7.57;4.32;;;17.80;30.90;;;;;;5096532;28;20106;-36
2021/04/23 11:53:12;;;;;;;8.27;3.00;;;17.60;31.10;;;;;;5096004;28;20492;-35
2021/04/23 11:55:43;;;;;;;5.68;3.58;;;16.80;32.10;;;;;;5096380;28;20085;-37
2021/04/23 11:58:09;;;;;;;;;;;17.70;31.10;;;;;;5096219;28;20025;-37
2021/04/23 12:00:37;;;;;;;9.25;2.95;;;17.40;31.90;;;;;;5096067;28;19966;-35
2021/04/23 12:03:06;;;;;;;14.25;3.83;;;16.30;33.10;;;;;;5095982;28;20021;-37
2021/04/23 12:05:35;;;;;;;8.02;3.38;;;15.80;34.30;;;;;;5095587;28;20027;-35
2021/04/23 12:08:23;;;;;;;4.87;3.37;;;15.80;34.10;;;;;;5096192;28;20494;-37
2021/04/23 12:11:03;;;;;;;11.77;3.10;;;16.50;32.80;;;;;;5095717;28;20357;-35
2021/04/23 12:13:30;;;;;;;8.45;4.22;;;17.00;32.10;;;;;;5095541;28;20519;-35
2021/04/23 12:15:58;;;;;;;9.65;3.58;;;16.80;32.50;;;;;;5094385;28;20024;-35
2021/04/23 12:18:25;;;;;;;7.88;2.92;;;15.90;33.80;;;;;;5095412;28;20032;-36
2021/04/23 12:20:53;;;;;;;9.77;4.00;;;16.80;32.80;;;;;;5095776;28;20089;-36
2021/04/23 12:23:22;;;;;;;10.00;3.53;;;16.50;33.30;;;;;;5095407;28;20354;-36
2021/04/23 12:25:52;;;;;;;8.52;3.38;;;16.70;33.10;;;;;;5095535;28;20047;-36
2021/04/23 12:28:41;;;;;;;8.73;3.22;;;16.70;33.20;;;;;;5095958;28;20031;-36
2021/04/23 12:31:20;;;;;;;10.73;3.25;;;17.00;32.50;;;;;;5093908;28;20039;-37
2021/04/23 12:33:56;;;;;;;10.05;4.35;;;18.30;30.50;;;;;;5093690;28;20056;-35
2021/04/23 12:36:27;;;;;;;9.02;4.03;;;18.30;30.50;;;;;;5095050;28;20066;-35
2021/04/23 12:38:55;;;;;;;8.38;3.47;;;17.40;31.60;;;;;;5095156;28;20035;-38
2021/04/23 12:41:21;;;;;;;6.80;2.88;;;18.00;30.00;;;;;;5094760;28;20032;-36
2021/04/23 12:43:48;;;;;;;13.85;3.83;;;15.90;33.20;;;;;;5095210;28;20423;-36
2021/04/23 12:46:30;;;;;;;11.68;3.38;;;15.80;34.00;;;;;;5094864;28;20460;-35
2021/04/23 12:49:00;;;;;;;9.43;3.53;;;16.30;33.00;;;;;;5094201;28;20072;-36
2021/04/23 12:51:27;;;;;;;8.27;3.42;;;16.70;32.80;;;;;;5094325;28;20036;-36